createdAt,value
2022-07-29T00:01:43.897Z,20.32
2022-07-29T00:04:12.991Z,20.25
2022-07-29T00:06:41.304Z,20.25
2022-07-29T00:09:09.278Z,20.24
2022-07-29T00:11:38.734Z,20.19
2022-07-29T00:14:06.894Z,20.19
2022-07-29T00:16:34.951Z,20.11
2022-07-29T00:19:02.892Z,20.15
2022-07-29T00:21:31.337Z,20.11
2022-07-29T00:23:59.274Z,20.11
2022-07-29T00:26:28.797Z,20.09
2022-07-29T00:29:30.692Z,20.08
2022-07-29T00:31:46.129Z,20.03
2022-07-29T00:34:28.072Z,20.01
2022-07-29T00:36:55.983Z,20.02
2022-07-29T00:39:24.130Z,20.00
2022-07-29T00:41:52.909Z,19.95
2022-07-29T00:44:22.601Z,19.95
2022-07-29T00:46:50.617Z,19.95
2022-07-29T00:49:18.849Z,19.92
2022-07-29T00:51:47.155Z,19.92
2022-07-29T00:54:15.783Z,19.87
2022-07-29T00:56:44.043Z,19.87
2022-07-29T00:59:11.932Z,19.78
2022-07-29T01:01:41.280Z,19.83
2022-07-29T01:04:09.408Z,19.76
2022-07-29T01:06:37.620Z,19.80
2022-07-29T01:09:05.660Z,19.76
2022-07-29T01:11:33.804Z,19.71
2022-07-29T01:14:03.111Z,19.68
2022-07-29T01:16:34.271Z,19.69
2022-07-29T01:19:15.307Z,19.62
2022-07-29T01:21:54.085Z,19.67
2022-07-29T01:24:42.079Z,19.62
2022-07-29T01:27:28.398Z,19.61
2022-07-29T01:30:01.217Z,19.60
2022-07-29T01:32:37.529Z,19.57
2022-07-29T01:35:08.702Z,19.53
2022-07-29T01:37:45.140Z,19.50
2022-07-29T01:40:22.812Z,19.48
2022-07-29T01:42:53.694Z,19.48
2022-07-29T01:45:28.482Z,19.46
2022-07-29T01:48:02.438Z,19.47
2022-07-29T01:50:36.515Z,19.47
2022-07-29T01:53:08.635Z,19.51
2022-07-29T01:55:40.571Z,19.49
2022-07-29T01:58:10.397Z,19.44
2022-07-29T02:00:41.336Z,19.46
2022-07-29T02:03:13.794Z,19.41
2022-07-29T02:05:44.684Z,19.41
2022-07-29T02:08:14.020Z,19.42
2022-07-29T02:10:42.886Z,19.35
2022-07-29T02:13:13.241Z,19.32
2022-07-29T02:15:44.419Z,19.34
2022-07-29T02:18:17.600Z,19.34
2022-07-29T02:20:48.980Z,19.34
2022-07-29T02:23:21.169Z,19.31
2022-07-29T02:25:51.357Z,19.21
2022-07-29T02:28:22.226Z,19.25
2022-07-29T02:30:54.306Z,19.26
2022-07-29T02:33:23.602Z,19.22
2022-07-29T02:35:52.908Z,19.17
2022-07-29T02:38:39.715Z,19.20
2022-07-29T02:41:17.198Z,19.16
2022-07-29T02:43:47.104Z,19.10
2022-07-29T02:46:28.582Z,19.11
2022-07-29T02:49:01.573Z,19.10
2022-07-29T02:51:44.480Z,19.07
2022-07-29T02:54:22.252Z,19.01
2022-07-29T02:56:53.665Z,19.00
2022-07-29T02:59:27.022Z,18.95
2022-07-29T03:01:57.905Z,18.95
2022-07-29T03:04:29.362Z,18.96
2022-07-29T03:07:00.847Z,18.88
2022-07-29T03:09:30.119Z,18.86
2022-07-29T03:11:59.219Z,18.82
2022-07-29T03:14:28.383Z,18.82
2022-07-29T03:16:58.212Z,18.77
2022-07-29T03:19:26.284Z,18.73
2022-07-29T03:21:54.663Z,18.75
2022-07-29T03:24:33.969Z,18.78
2022-07-29T03:27:02.549Z,18.69
2022-07-29T03:29:33.856Z,18.69
2022-07-29T03:32:08.482Z,18.64
2022-07-29T03:34:37.903Z,18.57
2022-07-29T03:37:06.828Z,18.53
2022-07-29T03:39:40.204Z,18.56
2022-07-29T03:42:10.441Z,18.53
2022-07-29T03:44:40.029Z,18.56
2022-07-29T03:47:11.517Z,18.58
2022-07-29T03:49:41.099Z,18.53
2022-07-29T03:52:09.904Z,18.50
2022-07-29T03:54:37.876Z,18.49
2022-07-29T03:57:09.311Z,18.45
2022-07-29T03:59:38.839Z,18.44
2022-07-29T04:02:11.286Z,18.44
2022-07-29T04:04:39.581Z,18.43
2022-07-29T04:07:07.577Z,18.41
2022-07-29T04:09:35.469Z,18.39
2022-07-29T04:12:04.404Z,18.39
2022-07-29T04:14:33.288Z,18.36
2022-07-29T04:17:01.506Z,18.37
2022-07-29T04:19:31.296Z,18.42
2022-07-29T04:22:00.974Z,18.42
2022-07-29T04:24:29.115Z,18.41
2022-07-29T04:26:57.015Z,18.45
2022-07-29T04:29:24.918Z,18.48
2022-07-29T04:31:52.839Z,18.51
2022-07-29T04:34:21.126Z,18.55
2022-07-29T04:36:50.517Z,18.56
2022-07-29T04:39:22.782Z,18.58
2022-07-29T04:41:52.559Z,18.64
2022-07-29T04:44:26.552Z,18.63
2022-07-29T04:46:58.657Z,18.68
2022-07-29T04:49:26.645Z,18.69
2022-07-29T04:51:55.970Z,18.67
2022-07-29T04:54:23.894Z,18.74
2022-07-29T04:56:53.361Z,18.80
2022-07-29T04:59:21.262Z,18.81
2022-07-29T05:01:49.193Z,18.85
2022-07-29T05:04:17.616Z,18.89
2022-07-29T05:06:45.740Z,18.87
2022-07-29T05:09:15.040Z,18.92
2022-07-29T05:11:42.872Z,18.94
2022-07-29T05:14:10.817Z,18.99
2022-07-29T05:16:40.120Z,19.03
2022-07-29T05:19:13.682Z,19.03
2022-07-29T05:21:42.179Z,19.05
2022-07-29T05:24:10.154Z,19.07
2022-07-29T05:26:39.693Z,19.15
2022-07-29T05:29:07.671Z,19.16
2022-07-29T05:31:55.579Z,19.19
2022-07-29T05:34:23.553Z,19.27
2022-07-29T05:36:51.902Z,19.33
2022-07-29T05:39:19.948Z,19.35
2022-07-29T05:41:52.015Z,19.34
2022-07-29T05:44:20.059Z,19.38
2022-07-29T05:46:48.012Z,19.43
2022-07-29T05:49:26.874Z,19.50
2022-07-29T05:51:55.404Z,19.52
2022-07-29T05:54:23.733Z,19.59
2022-07-29T05:56:53.005Z,19.67
2022-07-29T05:59:20.952Z,19.78
2022-07-29T06:01:48.931Z,19.88
2022-07-29T06:04:17.170Z,19.95
2022-07-29T06:06:45.306Z,20.01
2022-07-29T06:09:14.342Z,20.04
2022-07-29T06:11:42.535Z,20.12
2022-07-29T06:14:12.096Z,20.23
2022-07-29T06:16:40.096Z,20.29
2022-07-29T06:19:08.087Z,20.35
2022-07-29T06:21:38.674Z,20.44
2022-07-29T06:24:10.145Z,20.48
2022-07-29T06:26:40.020Z,20.51
2022-07-29T06:29:08.301Z,20.51
2022-07-29T06:31:37.508Z,20.62
2022-07-29T06:34:05.915Z,20.71
2022-07-29T06:36:36.519Z,20.77
2022-07-29T06:39:07.771Z,20.81
2022-07-29T06:41:36.469Z,20.86
2022-07-29T06:44:10.732Z,20.89
2022-07-29T06:46:40.155Z,20.90
2022-07-29T06:49:08.215Z,20.99
2022-07-29T06:51:36.181Z,21.09
2022-07-29T06:54:06.542Z,21.15
2022-07-29T06:56:39.137Z,21.25
2022-07-29T06:59:09.079Z,21.37
2022-07-29T07:01:37.690Z,21.38
2022-07-29T07:04:07.296Z,21.43
2022-07-29T07:06:35.226Z,21.46
2022-07-29T07:09:03.412Z,21.47
2022-07-29T07:11:31.528Z,21.52
2022-07-29T07:14:03.409Z,21.51
2022-07-29T07:16:33.133Z,21.57
2022-07-29T07:19:01.428Z,21.60
2022-07-29T07:21:31.096Z,21.69
2022-07-29T07:23:59.616Z,21.72
2022-07-29T07:26:28.049Z,21.75
2022-07-29T07:28:56.116Z,21.81
2022-07-29T07:31:24.079Z,21.93
2022-07-29T07:33:52.629Z,22.07
2022-07-29T07:36:20.575Z,22.17
2022-07-29T07:38:49.962Z,22.21
2022-07-29T07:41:17.937Z,22.27
2022-07-29T07:43:45.851Z,22.32
2022-07-29T07:46:13.842Z,22.30
2022-07-29T07:48:41.846Z,22.43
2022-07-29T07:51:10.204Z,22.58
2022-07-29T07:53:38.044Z,22.64
2022-07-29T07:56:10.426Z,22.74
2022-07-29T07:58:39.433Z,22.76
2022-07-29T08:01:07.550Z,22.84
2022-07-29T08:03:35.658Z,22.88
2022-07-29T08:06:03.680Z,22.84
2022-07-29T08:08:31.596Z,22.86
2022-07-29T08:11:02.154Z,22.91
2022-07-29T08:13:34.867Z,22.91
2022-07-29T08:16:02.995Z,23.00
2022-07-29T08:18:32.962Z,23.10
2022-07-29T08:21:01.117Z,23.12
2022-07-29T08:23:46.473Z,23.13
2022-07-29T08:26:17.031Z,23.24
2022-07-29T08:28:50.436Z,23.28
2022-07-29T08:31:19.280Z,23.19
2022-07-29T08:33:47.264Z,23.23
2022-07-29T08:36:15.158Z,23.26
2022-07-29T08:38:43.071Z,23.31
2022-07-29T08:41:11.270Z,23.37
2022-07-29T08:43:39.213Z,23.36
2022-07-29T08:46:08.562Z,23.35
2022-07-29T08:48:36.742Z,23.38
2022-07-29T08:51:06.120Z,23.38
2022-07-29T08:53:35.152Z,23.45
2022-07-29T08:56:03.978Z,23.52
2022-07-29T08:58:36.765Z,23.52
2022-07-29T09:01:07.703Z,23.66
2022-07-29T09:03:42.564Z,23.60
2022-07-29T09:06:10.890Z,23.75
2022-07-29T09:08:38.804Z,23.78
2022-07-29T09:11:08.356Z,23.76
2022-07-29T09:13:37.113Z,23.81
2022-07-29T09:16:09.414Z,23.95
2022-07-29T09:18:39.077Z,23.99
2022-07-29T09:21:27.965Z,23.95
2022-07-29T09:24:04.360Z,23.96
2022-07-29T09:26:33.479Z,23.94
2022-07-29T09:29:02.075Z,24.02
2022-07-29T09:31:36.243Z,24.05
2022-07-29T09:34:05.650Z,24.15
2022-07-29T09:36:41.336Z,24.29
2022-07-29T09:39:09.451Z,24.44
2022-07-29T09:41:48.021Z,24.59
2022-07-29T09:44:16.792Z,24.72
2022-07-29T09:46:56.404Z,24.76
2022-07-29T09:49:24.920Z,24.79
2022-07-29T09:52:05.426Z,24.83
2022-07-29T09:54:37.665Z,24.88
2022-07-29T09:57:07.481Z,24.89
2022-07-29T09:59:35.613Z,24.82
2022-07-29T10:02:03.631Z,24.90
2022-07-29T10:04:41.623Z,24.88
2022-07-29T10:07:11.284Z,24.78
2022-07-29T10:09:39.195Z,24.72
2022-07-29T10:12:12.033Z,24.72
2022-07-29T10:14:40.679Z,24.56
2022-07-29T10:17:10.771Z,24.42
2022-07-29T10:19:40.163Z,24.32
2022-07-29T10:22:11.489Z,24.16
2022-07-29T10:24:40.523Z,24.12
2022-07-29T10:27:10.532Z,23.86
2022-07-29T10:29:38.483Z,23.28
2022-07-29T10:32:24.723Z,22.66
2022-07-29T10:35:21.977Z,22.29
2022-07-29T10:38:17.237Z,21.70
2022-07-29T10:41:12.213Z,21.38
2022-07-29T10:43:51.278Z,21.08
2022-07-29T10:46:20.481Z,21.08
2022-07-29T10:49:09.079Z,21.04
2022-07-29T10:52:01.317Z,20.92
2022-07-29T10:54:44.110Z,20.85
2022-07-29T10:57:53.071Z,20.83
2022-07-29T11:00:31.371Z,20.62
2022-07-29T11:03:00.104Z,20.65
2022-07-29T11:05:32.073Z,20.62
2022-07-29T11:08:27.836Z,20.45
2022-07-29T11:11:44.127Z,20.38
2022-07-29T11:14:40.905Z,20.44
2022-07-29T11:17:09.097Z,20.44
2022-07-29T11:19:40.389Z,20.45
2022-07-29T11:22:16.601Z,20.49
2022-07-29T11:24:50.280Z,20.47
2022-07-29T11:27:20.980Z,20.48
2022-07-29T11:29:55.776Z,20.52
2022-07-29T11:32:25.580Z,20.59
2022-07-29T11:35:16.630Z,20.61
2022-07-29T11:37:51.375Z,20.75
2022-07-29T11:40:23.751Z,20.81
2022-07-29T11:42:52.632Z,20.80
2022-07-29T11:45:41.271Z,20.79
2022-07-29T11:48:32.054Z,20.90
2022-07-29T11:51:01.549Z,20.92
2022-07-29T11:53:32.874Z,21.03
2022-07-29T11:56:03.419Z,20.89
2022-07-29T11:58:32.136Z,20.98
2022-07-29T12:01:04.105Z,20.89
2022-07-29T12:03:35.832Z,20.88
2022-07-29T12:06:07.361Z,20.86
2022-07-29T12:08:42.477Z,20.89
2022-07-29T12:11:21.228Z,20.83
2022-07-29T12:13:49.799Z,20.82
2022-07-29T12:16:26.165Z,20.83
2022-07-29T12:18:59.392Z,20.78
2022-07-29T12:21:28.846Z,20.90
2022-07-29T12:24:04.814Z,20.86
2022-07-29T12:26:50.682Z,20.79
2022-07-29T12:29:20.330Z,20.76
2022-07-29T12:32:03.185Z,20.67
2022-07-29T12:34:31.859Z,20.65
2022-07-29T12:36:59.823Z,20.73
2022-07-29T12:39:29.064Z,20.75
2022-07-29T12:42:03.914Z,20.68
2022-07-29T12:44:46.175Z,20.63
2022-07-29T12:47:15.800Z,20.61
2022-07-29T12:49:43.930Z,20.57
2022-07-29T12:52:29.405Z,20.53
2022-07-29T12:54:57.996Z,20.52
2022-07-29T12:57:26.912Z,20.45
2022-07-29T13:00:03.919Z,20.44
2022-07-29T13:02:33.666Z,20.51
2022-07-29T13:05:02.797Z,20.41
2022-07-29T13:07:54.581Z,20.31
2022-07-29T13:10:24.280Z,20.34
2022-07-29T13:13:09.023Z,20.33
2022-07-29T13:15:37.608Z,20.20
2022-07-29T13:18:07.875Z,20.20
2022-07-29T13:20:36.097Z,20.18
2022-07-29T13:23:04.141Z,20.15
2022-07-29T13:25:34.339Z,20.28
2022-07-29T13:28:02.249Z,20.37
2022-07-29T13:30:30.277Z,20.41
2022-07-29T13:32:58.213Z,20.58
2022-07-29T13:35:30.697Z,20.72
2022-07-29T13:37:58.722Z,20.83
2022-07-29T13:40:26.942Z,20.86
2022-07-29T13:42:54.903Z,20.91
2022-07-29T13:45:22.964Z,21.03
2022-07-29T13:47:50.888Z,21.14
2022-07-29T13:50:18.796Z,21.07
2022-07-29T13:52:49.343Z,21.07
2022-07-29T13:55:17.202Z,21.17
2022-07-29T13:57:45.104Z,21.24
2022-07-29T14:00:14.740Z,21.16
2022-07-29T14:02:42.581Z,21.26
2022-07-29T14:05:11.578Z,21.32
2022-07-29T14:07:39.934Z,21.41
2022-07-29T14:10:10.253Z,21.41
2022-07-29T14:12:38.323Z,21.48
2022-07-29T14:15:07.339Z,21.57
2022-07-29T14:17:35.409Z,21.58
2022-07-29T14:20:03.467Z,21.65
2022-07-29T14:22:31.371Z,21.71
2022-07-29T14:25:02.304Z,21.78
2022-07-29T14:27:44.809Z,21.83
2022-07-29T14:30:13.706Z,21.95
2022-07-29T14:32:41.702Z,22.01
2022-07-29T14:35:10.311Z,22.05
2022-07-29T14:37:40.381Z,22.07
2022-07-29T14:40:10.092Z,22.14
2022-07-29T14:42:38.520Z,22.20
2022-07-29T14:45:10.751Z,22.23
2022-07-29T14:47:40.516Z,22.26
2022-07-29T14:50:09.477Z,22.26
2022-07-29T14:52:37.377Z,22.29
2022-07-29T14:55:16.390Z,22.33
2022-07-29T14:57:48.183Z,22.36
2022-07-29T15:00:18.366Z,22.39
2022-07-29T15:03:01.299Z,22.44
2022-07-29T15:05:30.084Z,22.40
2022-07-29T15:07:57.976Z,22.46
2022-07-29T15:10:27.146Z,22.42
2022-07-29T15:12:55.046Z,22.49
2022-07-29T15:15:24.499Z,22.47
2022-07-29T15:17:52.368Z,22.48
2022-07-29T15:20:20.478Z,22.47
2022-07-29T15:22:48.357Z,22.48
2022-07-29T15:25:16.313Z,22.46
2022-07-29T15:27:44.433Z,22.48
2022-07-29T15:30:32.559Z,22.50
2022-07-29T15:33:04.450Z,22.52
2022-07-29T15:35:32.545Z,22.54
2022-07-29T15:38:00.627Z,22.58
2022-07-29T15:40:28.897Z,22.56
2022-07-29T15:42:56.839Z,22.57
2022-07-29T15:45:25.020Z,22.57
2022-07-29T15:47:52.955Z,22.61
2022-07-29T15:50:22.734Z,22.64
2022-07-29T15:52:50.604Z,22.65
2022-07-29T15:55:19.002Z,22.67
2022-07-29T15:57:47.045Z,22.71
2022-07-29T16:00:17.169Z,22.72
2022-07-29T16:02:45.563Z,22.71
2022-07-29T16:05:13.633Z,22.72
2022-07-29T16:07:43.004Z,22.68
2022-07-29T16:10:11.000Z,22.71
2022-07-29T16:12:38.907Z,22.71
2022-07-29T16:15:10.504Z,22.72
2022-07-29T16:17:38.855Z,22.72
2022-07-29T16:20:08.193Z,22.75
2022-07-29T16:22:36.287Z,22.80
2022-07-29T16:25:06.268Z,22.78
2022-07-29T16:27:37.549Z,22.76
2022-07-29T16:30:07.956Z,22.73
2022-07-29T16:32:35.900Z,22.72
2022-07-29T16:35:05.213Z,22.70
2022-07-29T16:37:35.350Z,22.69
2022-07-29T16:40:03.499Z,22.71
2022-07-29T16:42:45.973Z,22.73
2022-07-29T16:45:14.755Z,22.73
2022-07-29T16:47:43.291Z,22.69
2022-07-29T16:50:11.262Z,22.74
2022-07-29T16:52:39.960Z,22.72
2022-07-29T16:55:08.857Z,22.73
2022-07-29T16:57:38.077Z,22.72
2022-07-29T17:00:07.382Z,22.74
2022-07-29T17:02:35.269Z,22.78
2022-07-29T17:05:03.130Z,22.86
2022-07-29T17:07:31.040Z,22.91
2022-07-29T17:10:03.599Z,22.93
2022-07-29T17:12:32.356Z,22.95
2022-07-29T17:15:01.661Z,22.96
2022-07-29T17:17:38.640Z,23.01
2022-07-29T17:20:09.353Z,23.05
2022-07-29T17:22:37.501Z,23.06
2022-07-29T17:25:06.567Z,23.08
2022-07-29T17:27:35.046Z,23.09
2022-07-29T17:30:06.395Z,23.09
2022-07-29T17:32:38.452Z,23.10
2022-07-29T17:35:28.602Z,23.09
2022-07-29T17:37:57.055Z,23.15
2022-07-29T17:40:25.001Z,23.16
2022-07-29T17:42:52.943Z,23.18
2022-07-29T17:45:22.173Z,23.16
2022-07-29T17:47:50.087Z,23.14
2022-07-29T17:50:17.920Z,23.12
2022-07-29T17:52:45.776Z,23.13
2022-07-29T17:55:14.132Z,23.12
2022-07-29T17:57:42.162Z,23.14
2022-07-29T18:00:10.798Z,23.13
2022-07-29T18:02:40.084Z,23.11
2022-07-29T18:05:08.545Z,23.09
2022-07-29T18:07:36.467Z,23.09
2022-07-29T18:10:04.907Z,23.03
2022-07-29T18:12:32.863Z,23.02
2022-07-29T18:15:00.784Z,22.97
2022-07-29T18:17:49.448Z,22.93
2022-07-29T18:20:17.930Z,22.90
2022-07-29T18:22:45.802Z,22.84
2022-07-29T18:25:13.750Z,22.81
2022-07-29T18:27:41.606Z,22.75
2022-07-29T18:30:10.325Z,22.74
2022-07-29T18:32:38.264Z,22.67
2022-07-29T18:35:06.769Z,22.61
2022-07-29T18:38:00.871Z,22.51
2022-07-29T18:40:25.796Z,22.42
2022-07-29T18:42:53.826Z,22.36
2022-07-29T18:45:21.966Z,22.30
2022-07-29T18:50:19.309Z,22.13
2022-07-29T18:52:48.534Z,22.04
2022-07-29T18:55:16.416Z,21.96
2022-07-29T18:57:55.015Z,21.88
2022-07-29T19:00:25.427Z,21.80
2022-07-29T19:02:53.934Z,21.72
2022-07-29T19:05:23.025Z,21.64
2022-07-29T19:07:53.094Z,21.59
2022-07-29T19:10:21.268Z,21.53
2022-07-29T19:12:49.207Z,21.46
2022-07-29T19:15:20.246Z,21.42
2022-07-29T19:17:49.315Z,21.32
2022-07-29T19:20:17.241Z,21.24
2022-07-29T19:22:45.190Z,21.21
2022-07-29T19:25:15.196Z,21.11
2022-07-29T19:27:43.142Z,21.08
2022-07-29T19:30:11.633Z,21.02
2022-07-29T19:32:39.560Z,20.99
2022-07-29T19:35:31.069Z,20.93
2022-07-29T19:38:00.882Z,20.86
2022-07-29T19:40:30.967Z,20.82
2022-07-29T19:42:59.174Z,20.74
2022-07-29T19:45:27.428Z,20.63
2022-07-29T19:48:00.691Z,20.61
2022-07-29T19:50:29.572Z,20.54
2022-07-29T19:52:57.569Z,20.46
2022-07-29T19:55:25.507Z,20.38
2022-07-29T19:57:54.883Z,20.34
2022-07-29T20:00:23.782Z,20.23
2022-07-29T20:02:52.099Z,20.20
2022-07-29T20:05:20.134Z,20.17
2022-07-29T20:07:48.148Z,20.17
2022-07-29T20:10:16.339Z,20.07
2022-07-29T20:12:44.309Z,20.04
2022-07-29T20:15:16.609Z,19.98
2022-07-29T20:17:44.854Z,19.99
2022-07-29T20:20:13.173Z,19.94
2022-07-29T20:22:41.060Z,19.85
2022-07-29T20:25:09.986Z,19.81
2022-07-29T20:27:40.348Z,19.78
2022-07-29T20:30:13.200Z,19.70
2022-07-29T20:32:42.774Z,19.69
2022-07-29T20:35:12.070Z,19.61
2022-07-29T20:37:51.402Z,19.51
2022-07-29T20:40:25.375Z,19.41
2022-07-29T20:42:53.398Z,19.35
2022-07-29T20:45:21.337Z,19.30
2022-07-29T20:47:51.677Z,19.30
2022-07-29T20:50:20.514Z,19.25
2022-07-29T20:52:51.730Z,19.18
2022-07-29T20:55:19.988Z,19.12
2022-07-29T20:57:47.879Z,19.11
2022-07-29T21:00:16.159Z,19.05
2022-07-29T21:02:44.046Z,19.05
2022-07-29T21:05:13.401Z,19.01
2022-07-29T21:07:41.358Z,18.98
2022-07-29T21:10:09.610Z,18.96
2022-07-29T21:12:37.642Z,18.89
2022-07-29T21:15:06.676Z,18.90
2022-07-29T21:17:35.953Z,18.82
2022-07-29T21:20:06.686Z,18.86
2022-07-29T21:22:35.988Z,18.78
2022-07-29T21:25:04.065Z,18.81
2022-07-29T21:27:49.384Z,18.78
2022-07-29T21:30:17.423Z,18.67
2022-07-29T21:32:45.367Z,18.63
2022-07-29T21:35:30.216Z,18.62
2022-07-29T21:38:02.540Z,18.60
2022-07-29T21:40:30.477Z,18.52
2022-07-29T21:42:58.352Z,18.51
2022-07-29T21:45:26.851Z,18.49
2022-07-29T21:47:54.693Z,18.39
2022-07-29T21:50:22.678Z,18.41
2022-07-29T21:52:50.515Z,18.36
2022-07-29T21:55:19.969Z,18.36
2022-07-29T21:57:50.952Z,18.38
2022-07-29T22:00:18.880Z,18.22
2022-07-29T22:02:46.940Z,18.24
2022-07-29T22:05:15.394Z,18.25
2022-07-29T22:07:56.521Z,18.26
2022-07-29T22:10:27.359Z,18.24
2022-07-29T22:12:56.662Z,18.22
2022-07-29T22:15:25.293Z,18.17
2022-07-29T22:17:53.384Z,18.13
2022-07-29T22:20:22.047Z,18.12
2022-07-29T22:22:49.980Z,18.09
2022-07-29T22:25:17.917Z,18.06
2022-07-29T22:27:47.229Z,17.94
2022-07-29T22:30:15.415Z,17.96
2022-07-29T22:32:43.591Z,17.93
2022-07-29T22:35:11.919Z,17.91
2022-07-29T22:37:40.168Z,17.88
2022-07-29T22:40:09.191Z,17.88
2022-07-29T22:42:37.096Z,17.83
2022-07-29T22:45:11.618Z,17.81
2022-07-29T22:47:47.861Z,17.75
2022-07-29T22:50:17.173Z,17.67
2022-07-29T22:52:45.274Z,17.65
2022-07-29T22:55:13.228Z,17.61
2022-07-29T22:57:41.143Z,17.54
2022-07-29T23:00:11.777Z,17.58
2022-07-29T23:02:41.231Z,17.55
2022-07-29T23:05:10.329Z,17.56
2022-07-29T23:07:38.371Z,17.52
2022-07-29T23:10:07.509Z,17.51
2022-07-29T23:12:35.362Z,17.44
2022-07-29T23:15:04.573Z,17.41
2022-07-29T23:17:36.097Z,17.38
2022-07-29T23:20:07.413Z,17.33
2022-07-29T23:22:35.312Z,17.29
2022-07-29T23:25:03.383Z,17.26
2022-07-29T23:27:31.297Z,17.22
2022-07-29T23:29:59.178Z,17.21
2022-07-29T23:32:27.128Z,17.20
2022-07-29T23:34:56.360Z,17.16
2022-07-29T23:37:24.465Z,17.11
2022-07-29T23:39:54.874Z,17.10
2022-07-29T23:42:22.738Z,17.08
2022-07-29T23:44:50.602Z,17.08
2022-07-29T23:47:18.495Z,17.07
2022-07-29T23:49:46.514Z,17.05
2022-07-29T23:52:15.756Z,17.05
2022-07-29T23:54:43.763Z,17.01
2022-07-29T23:57:11.628Z,17.03
2022-07-29T23:59:39.732Z,17.05
